Time;durP1;ratioP1;P1;durP2;ratioP2;P2;SDS_P1;SDS_P2;PMS_P1;PMS_P2;Temp;Humidity;BMP_temperature;BMP_pressure;BME280_temperature;BME280_humidity;BME280_pressure;Samples;Min_cycle;Max_cycle;Signal;HPM_P1;HPM_P2
2023/09/30 00:01:26;;;;;;;;;;;;;;;;;;5054937;28;20031;-70
2023/09/30 00:03:53;;;;;;;;;;;;;;;;;;5054738;28;20408;-68
2023/09/30 00:06:19;;;;;;;;;;;;;;;;;;5054626;28;20002;-68
2023/09/30 00:08:45;;;;;;;;;;;;;;;;;;5054897;28;19986;-69
2023/09/30 00:11:11;;;;;;;;;;;;;;;;;;5054539;28;19990;-69
2023/09/30 00:13:38;;;;;;;;;;;;;;;;;;5054675;28;19985;-70
2023/09/30 00:16:04;;;;;;;;;;;;;;;;;;5054569;28;20560;-68
2023/09/30 00:18:30;;;;;;;;;;;;;;;;;;5054347;28;19992;-69
2023/09/30 00:20:57;;;;;;;;;;;;;;;;;;5054912;28;19990;-69
2023/09/30 00:23:23;;;;;;;;;;;;;;;;;;5054386;28;20450;-69
2023/09/30 00:25:50;;;;;;;;;;;;;;;;;;5054527;28;20055;-68
2023/09/30 00:28:16;;;;;;;;;;;;;;;;;;5054519;28;19989;-68
2023/09/30 00:30:42;;;;;;;;;;;;;;;;;;5053077;28;20656;-68
2023/09/30 00:33:08;;;;;;;;;;;;;;;;;;5054301;28;19982;-70
2023/09/30 00:35:33;;;;;;;;;;;;;;;;;;5054379;28;19989;-68
2023/09/30 00:37:59;;;;;;;;;;;;;;;;;;5054410;28;20053;-69
2023/09/30 00:40:25;;;;;;;;;;;;;;;;;;5054263;28;19989;-69
2023/09/30 00:42:51;;;;;;;;;;;;;;;;;;5054169;28;20029;-69
2023/09/30 00:45:17;;;;;;;;;;;;;;;;;;5053795;28;20029;-68
2023/09/30 00:47:43;;;;;;;;;;;;;;;;;;5052640;28;20123;-68
2023/09/30 00:50:11;;;;;;;;;;;;;;;;;;5054175;28;20025;-68
2023/09/30 00:52:38;;;;;;;;;;;;;;;;;;5054053;28;19982;-69
2023/09/30 00:55:05;;;;;;;;;;;;;;;;;;5053877;28;19982;-69
2023/09/30 00:57:31;;;;;;;;;;;;;;;;;;5053923;28;20008;-69
2023/09/30 00:59:57;;;;;;;;;;;;;;;;;;5053824;28;19985;-69
2023/09/30 01:02:23;;;;;;;;;;;;;;;;;;5053642;28;20025;-68
2023/09/30 01:04:49;;;;;;;;;;;;;;;;;;5053638;28;20051;-69
2023/09/30 01:07:15;;;;;;;;;;;;;;;;;;5053711;28;19993;-69
2023/09/30 01:09:41;;;;;;;;;;;;;;;;;;5053637;28;19992;-68
2023/09/30 01:12:08;;;;;;;;;;;;;;;;;;5053527;28;19986;-69
2023/09/30 01:14:38;;;;;;;;;;;;;;;;;;5053622;28;19985;-69
2023/09/30 01:17:08;;;;;;;;;;;;;;;;;;5053369;28;19989;-69
2023/09/30 01:19:34;;;;;;;;;;;;;;;;;;5053334;28;19986;-70
2023/09/30 01:22:00;;;;;;;;;;;;;;;;;;5053404;28;20477;-70
2023/09/30 01:24:26;;;;;;;;;;;;;;;;;;5053383;28;19982;-68
2023/09/30 01:26:52;;;;;;;;;;;;;;;;;;5053503;28;19986;-69
2023/09/30 01:29:18;;;;;;;;;;;;;;;;;;5053207;28;20068;-69
2023/09/30 01:31:47;;;;;;;;;;;;;;;;;;5051774;28;20044;-68
2023/09/30 01:34:13;;;;;;;;;;;;;;;;;;5053105;28;19989;-68
2023/09/30 01:36:39;;;;;;;;;;;;;;;;;;5053131;28;19982;-67
2023/09/30 01:39:07;;;;;;;;;;;;;;;;;;5053091;28;19982;-68
2023/09/30 01:41:33;;;;;;;;;;;;;;;;;;5051985;28;20261;-66
2023/09/30 01:43:59;;;;;;;;;;;;;;;;;;5052580;28;20691;-69
2023/09/30 01:46:25;;;;;;;;;;;;;;;;;;5053188;28;19992;-70
2023/09/30 01:48:51;;;;;;;;;;;;;;;;;;5052573;28;20442;-69
2023/09/30 01:51:17;;;;;;;;;;;;;;;;;;5052863;28;19993;-69
2023/09/30 01:53:43;;;;;;;;;;;;;;;;;;5052811;28;19989;-68
2023/09/30 01:56:09;;;;;;;;;;;;;;;;;;5052713;28;19986;-69
2023/09/30 01:58:35;;;;;;;;;;;;;;;;;;5052681;28;19982;-68
2023/09/30 02:01:02;;;;;;;;;;;;;;;;;;5052017;28;20442;-68
2023/09/30 02:03:29;;;;;;;;;;;;;;;;;;5052557;28;20014;-68
2023/09/30 02:05:55;;;;;;;;;;;;;;;;;;5052595;28;20104;-68
2023/09/30 02:08:22;;;;;;;;;;;;;;;;;;5052677;28;20414;-68
2023/09/30 02:10:48;;;;;;;;;;;;;;;;;;5052588;28;20035;-70
2023/09/30 02:13:14;;;;;;;;;;;;;;;;;;5052745;28;19990;-69
2023/09/30 02:15:41;;;;;;;;;;;;;;;;;;5052533;28;19982;-68
2023/09/30 02:18:07;;;;;;;;;;;;;;;;;;5051050;28;20503;-69
2023/09/30 02:20:33;;;;;;;;;;;;;;;;;;5052373;28;20261;-71
2023/09/30 02:22:59;;;;;;;;;;;;;;;;;;5052289;28;20013;-67
2023/09/30 02:25:25;;;;;;;;;;;;;;;;;;5050973;28;19992;-67
2023/09/30 02:27:51;;;;;;;;;;;;;;;;;;5052368;28;19990;-68
2023/09/30 02:30:17;;;;;;;;;;;;;;;;;;5052257;28;20028;-68
2023/09/30 02:32:46;;;;;;;;;;;;;;;;;;5052266;28;20437;-68
2023/09/30 02:35:12;;;;;;;;;;;;;;;;;;5052005;28;19982;-68
2023/09/30 02:37:38;;;;;;;;;;;;;;;;;;5051852;28;20530;-67
2023/09/30 02:40:05;;;;;;;;;;;;;;;;;;5051944;28;19986;-67
2023/09/30 02:42:31;;;;;;;;;;;;;;;;;;5051885;28;20063;-68
2023/09/30 02:44:57;;;;;;;;;;;;;;;;;;5051614;28;20065;-68
2023/09/30 02:47:23;;;;;;;;;;;;;;;;;;5051699;28;20666;-69
2023/09/30 02:49:49;;;;;;;;;;;;;;;;;;5051664;28;20044;-67
2023/09/30 02:52:15;;;;;;;;;;;;;;;;;;5051768;28;19985;-67
2023/09/30 02:54:41;;;;;;;;;;;;;;;;;;5050381;28;19986;-68
2023/09/30 02:57:09;;;;;;;;;;;;;;;;;;5051721;28;20100;-68
2023/09/30 02:59:36;;;;;;;;;;;;;;;;;;5051771;28;19993;-67
2023/09/30 03:02:02;;;;;;;;;;;;;;;;;;5051626;28;19986;-68
2023/09/30 03:04:28;;;;;;;;;;;;;;;;;;5051975;28;19986;-68
2023/09/30 03:06:56;;;;;;;;;;;;;;;;;;5051521;28;19997;-67
2023/09/30 03:09:22;;;;;;;;;;;;;;;;;;5051357;28;20129;-68
2023/09/30 03:11:48;;;;;;;;;;;;;;;;;;5051381;28;20509;-68
2023/09/30 03:14:14;;;;;;;;;;;;;;;;;;5050651;28;19982;-68
2023/09/30 03:16:41;;;;;;;;;;;;;;;;;;5050210;28;19986;-68
2023/09/30 03:19:08;;;;;;;;;;;;;;;;;;5051217;28;20389;-68
2023/09/30 03:21:34;;;;;;;;;;;;;;;;;;5051330;28;20008;-67
2023/09/30 03:24:00;;;;;;;;;;;;;;;;;;5051243;28;20499;-68
2023/09/30 03:26:27;;;;;;;;;;;;;;;;;;5051339;28;20489;-68
2023/09/30 03:28:53;;;;;;;;;;;;;;;;;;5051496;28;19986;-68
2023/09/30 03:31:19;;;;;;;;;;;;;;;;;;5051254;28;19986;-67
2023/09/30 03:33:47;;;;;;;;;;;;;;;;;;5051227;28;19989;-67
2023/09/30 03:36:15;;;;;;;;;;;;;;;;;;5051176;28;20080;-68
2023/09/30 03:38:41;;;;;;;;;;;;;;;;;;5051418;28;19996;-68
2023/09/30 03:41:08;;;;;;;;;;;;;;;;;;5051295;28;20449;-68
2023/09/30 03:43:36;;;;;;;;;;;;;;;;;;5050972;28;20014;-68
2023/09/30 03:46:02;;;;;;;;;;;;;;;;;;5051076;28;19986;-68
2023/09/30 03:48:28;;;;;;;;;;;;;;;;;;5051059;28;19990;-68
2023/09/30 03:50:54;;;;;;;;;;;;;;;;;;5051121;28;19982;-68
2023/09/30 03:53:21;;;;;;;;;;;;;;;;;;5051151;28;19986;-67
2023/09/30 03:55:47;;;;;;;;;;;;;;;;;;5050934;28;20076;-68
2023/09/30 03:58:13;;;;;;;;;;;;;;;;;;5051190;28;20080;-68
2023/09/30 04:00:39;;;;;;;;;;;;;;;;;;5049742;28;20108;-68
2023/09/30 04:03:05;;;;;;;;;;;;;;;;;;5050827;28;20414;-68
2023/09/30 04:05:36;;;;;;;;;;;;;;;;;;5050877;28;20087;-68
2023/09/30 04:08:02;;;;;;;;;;;;;;;;;;5050933;28;20487;-68
2023/09/30 04:10:29;;;;;;;;;;;;;;;;;;5051056;28;20580;-69
2023/09/30 04:12:55;;;;;;;;;;;;;;;;;;5051058;28;20434;-68
2023/09/30 04:15:21;;;;;;;;;;;;;;;;;;5050835;28;19986;-67
2023/09/30 04:17:47;;;;;;;;;;;;;;;;;;5050794;28;19997;-68
2023/09/30 04:20:20;;;;;;;;;;;;;;;;;;5049445;28;19986;-66
2023/09/30 04:22:48;;;;;;;;;;;;;;;;;;5049454;28;20014;-68
2023/09/30 04:25:16;;;;;;;;;;;;;;;;;;5052558;28;20409;-69
2023/09/30 04:27:42;;;;;;;;;;;;;;;;;;5054515;28;20088;-68
2023/09/30 04:30:11;;;;;;;;;;;;;;;;;;5054565;28;20331;-68
2023/09/30 04:32:38;;;;;;;;;;;;;;;;;;5054184;28;20084;-67
2023/09/30 04:35:04;;;;;;;;;;;;;;;;;;5054480;28;20024;-68
2023/09/30 04:37:30;;;;;;;;;;;;;;;;;;5054374;28;20576;-68
2023/09/30 04:39:57;;;;;;;;;;;;;;;;;;5054276;28;19982;-68
2023/09/30 04:42:25;;;;;;;;;;;;;;;;;;5054280;28;20041;-67
2023/09/30 04:44:51;;;;;;;;;;;;;;;;;;5053629;28;20489;-68
2023/09/30 04:47:18;;;;;;;;;;;;;;;;;;5053963;28;19989;-69
2023/09/30 04:49:44;;;;;;;;;;;;;;;;;;5052717;28;20028;-67
2023/09/30 04:52:11;;;;;;;;;;;;;;;;;;5054106;28;20069;-67
2023/09/30 04:54:37;;;;;;;;;;;;;;;;;;5054057;28;20486;-68
2023/09/30 04:57:03;;;;;;;;;;;;;;;;;;5053839;28;20076;-68
2023/09/30 04:59:29;;;;;;;;;;;;;;;;;;5053818;28;19986;-68
2023/09/30 05:01:56;;;;;;;;;;;;;;;;;;5053646;28;20076;-67
2023/09/30 05:04:23;;;;;;;;;;;;;;;;;;5053972;28;20021;-68
2023/09/30 05:06:50;;;;;;;;;;;;;;;;;;5053681;28;19998;-68
2023/09/30 05:09:16;;;;;;;;;;;;;;;;;;5053638;28;19985;-68
2023/09/30 05:11:41;;;;;;;;;;;;;;;;;;5053584;28;19982;-68
2023/09/30 05:14:08;;;;;;;;;;;;;;;;;;5053551;28;19986;-68
2023/09/30 05:16:33;;;;;;;;;;;;;;;;;;5053589;28;20055;-68
2023/09/30 05:18:59;;;;;;;;;;;;;;;;;;5053231;28;19982;-68
2023/09/30 05:21:26;;;;;;;;;;;;;;;;;;5053398;28;19986;-68
2023/09/30 05:23:52;;;;;;;;;;;;;;;;;;5051958;28;20020;-69
2023/09/30 05:26:18;;;;;;;;;;;;;;;;;;5051945;28;20021;-68
2023/09/30 05:28:44;;;;;;;;;;;;;;;;;;5052104;28;20409;-68
2023/09/30 05:31:10;;;;;;;;;;;;;;;;;;5053151;28;19986;-66
2023/09/30 05:33:37;;;;;;;;;;;;;;;;;;5053080;28;20085;-67
2023/09/30 05:36:03;;;;;;;;;;;;;;;;;;5052168;28;20084;-67
2023/09/30 05:38:31;;;;;;;;;;;;;;;;;;5053010;28;19989;-68
2023/09/30 05:41:01;;;;;;;;;;;;;;;;;;5053366;28;20017;-68
2023/09/30 05:43:27;;;;;;;;;;;;;;;;;;5053192;28;20009;-67
2023/09/30 05:45:54;;;;;;;;;;;;;;;;;;5053074;28;20091;-67
2023/09/30 05:48:20;;;;;;;;;;;;;;;;;;5053392;28;20017;-68
2023/09/30 05:50:47;;;;;;;;;;;;;;;;;;5053131;28;19982;-67
2023/09/30 05:53:13;;;;;;;;;;;;;;;;;;5051767;28;20036;-67
2023/09/30 05:55:42;;;;;;;;;;;;;;;;;;5051721;28;20365;-66
2023/09/30 05:58:08;;;;;;;;;;;;;;;;;;5051455;28;20491;-67
2023/09/30 06:00:35;;;;;;;;;;;;;;;;;;5052980;28;20089;-67
2023/09/30 06:03:01;;;;;;;;;;;;;;;;;;5051489;28;20063;-67
2023/09/30 06:05:29;;;;;;;;;;;;;;;;;;5052611;28;20005;-68
2023/09/30 06:07:55;;;;;;;;;;;;;;;;;;5052733;28;19988;-68
2023/09/30 06:10:21;;;;;;;;;;;;;;;;;;5052564;28;19982;-67
2023/09/30 06:12:47;;;;;;;;;;;;;;;;;;5052394;28;19992;-68
2023/09/30 06:15:13;;;;;;;;;;;;;;;;;;5052777;28;19997;-67
2023/09/30 06:17:39;;;;;;;;;;;;;;;;;;5051326;28;20088;-70
2023/09/30 06:20:08;;;;;;;;;;;;;;;;;;5052263;28;20029;-67
2023/09/30 06:22:34;;;;;;;;;;;;;;;;;;5052122;28;20114;-67
2023/09/30 06:25:00;;;;;;;;;;;;;;;;;;5051944;28;20033;-66
2023/09/30 06:27:26;;;;;;;;;;;;;;;;;;5052238;28;20029;-68
2023/09/30 06:29:52;;;;;;;;;;;;;;;;;;5052035;28;19989;-67
2023/09/30 06:32:18;;;;;;;;;;;;;;;;;;5052173;28;20471;-67
2023/09/30 06:34:44;;;;;;;;;;;;;;;;;;5052179;28;19993;-68
2023/09/30 06:37:10;;;;;;;;;;;;;;;;;;5051865;28;19985;-67
2023/09/30 06:39:37;;;;;;;;;;;;;;;;;;5051806;28;19989;-67
2023/09/30 06:42:03;;;;;;;;;;;;;;;;;;5051763;28;20087;-67
2023/09/30 06:44:31;;;;;;;;;;;;;;;;;;5051432;28;20051;-68
2023/09/30 06:46:57;;;;;;;;;;;;;;;;;;5051784;28;20008;-67
2023/09/30 06:49:24;;;;;;;;;;;;;;;;;;5051764;28;19990;-68
2023/09/30 06:51:50;;;;;;;;;;;;;;;;;;5051470;28;20016;-69
2023/09/30 06:54:16;;;;;;;;;;;;;;;;;;5051621;28;20021;-68
2023/09/30 06:56:43;;;;;;;;;;;;;;;;;;5051840;28;20065;-69
2023/09/30 06:59:09;;;;;;;;;;;;;;;;;;5051573;28;19986;-68
2023/09/30 07:01:34;;;;;;;;;;;;;;;;;;5051592;28;19989;-68
2023/09/30 07:04:01;;;;;;;;;;;;;;;;;;5051423;28;20009;-68
2023/09/30 07:06:27;;;;;;;;;;;;;;;;;;5051472;28;20045;-68
2023/09/30 07:08:53;;;;;;;;;;;;;;;;;;5051393;28;19986;-68
2023/09/30 07:11:19;;;;;;;;;;;;;;;;;;5051169;28;20045;-67
2023/09/30 07:13:45;;;;;;;;;;;;;;;;;;5051388;28;20016;-66
2023/09/30 07:16:11;;;;;;;;;;;;;;;;;;5049362;28;20029;-67
2023/09/30 07:18:37;;;;;;;;;;;;;;;;;;5051391;28;20001;-67
2023/09/30 07:21:03;;;;;;;;;;;;;;;;;;5051245;28;20005;-68
2023/09/30 07:23:29;;;;;;;;;;;;;;;;;;5050895;28;20009;-68
2023/09/30 07:25:55;;;;;;;;;;;;;;;;;;5051053;28;20456;-68
2023/09/30 07:28:21;;;;;;;;;;;;;;;;;;5050184;28;19992;-68
2023/09/30 07:30:47;;;;;;;;;;;;;;;;;;5051363;28;20065;-68
2023/09/30 07:33:13;;;;;;;;;;;;;;;;;;5051174;28;19986;-68
2023/09/30 07:35:39;;;;;;;;;;;;;;;;;;5051251;28;19989;-68
2023/09/30 07:38:05;;;;;;;;;;;;;;;;;;5051176;28;20039;-68
2023/09/30 07:40:32;;;;;;;;;;;;;;;;;;5051189;28;20441;-68
2023/09/30 07:42:58;;;;;;;;;;;;;;;;;;5051129;28;20428;-68
2023/09/30 07:45:24;;;;;;;;;;;;;;;;;;5051164;28;20025;-69
2023/09/30 07:47:51;;;;;;;;;;;;;;;;;;5048848;28;19986;-69
2023/09/30 07:50:17;;;;;;;;;;;;;;;;;;5033739;28;20081;-65
2023/09/30 07:52:43;;;;;;;;;;;;;;;;;;5030880;28;20209;-66
2023/09/30 07:55:09;;;;;;;;;;;;;;;;;;5031186;28;19997;-67
2023/09/30 07:57:35;;;;;;;;;;;;;;;;;;5031074;28;19987;-67
2023/09/30 08:00:03;;;;;;;;;;;;;;;;;;5032716;28;20012;-67
2023/09/30 08:02:33;;;;;;;;;;;;;;;;;;5034900;28;20017;-68
2023/09/30 08:04:59;;;;;;;;;;;;;;;;;;5034753;28;20002;-69
2023/09/30 08:07:25;;;;;;;;;;;;;;;;;;5034858;28;20439;-67
2023/09/30 08:09:51;;;;;;;;;;;;;;;;;;5035147;28;19986;-68
2023/09/30 08:12:17;;;;;;;;;;;;;;;;;;5034821;28;19982;-68
2023/09/30 08:14:46;;;;;;;;;;;;;;;;;;5034934;28;20005;-67
2023/09/30 08:17:12;;;;;;;;;;;;;;;;;;5034859;28;20028;-68
2023/09/30 08:19:38;;;;;;;;;;;;;;;;;;5034526;28;20029;-67
2023/09/30 08:22:04;;;;;;;;;;;;;;;;;;5034253;28;20199;-68
2023/09/30 08:24:30;;;;;;;;;;;;;;;;;;5034678;28;20505;-66
2023/09/30 08:26:56;;;;;;;;;;;;;;;;;;5034534;28;19994;-67
2023/09/30 08:29:22;;;;;;;;;;;;;;;;;;5034695;28;19993;-68
2023/09/30 08:31:50;;;;;;;;;;;;;;;;;;5034337;28;20073;-67
2023/09/30 08:34:17;;;;;;;;;;;;;;;;;;5034290;28;20473;-66
2023/09/30 08:36:43;;;;;;;;;;;;;;;;;;5034343;28;20098;-67
2023/09/30 08:39:12;;;;;;;;;;;;;;;;;;5039378;28;19986;-68
2023/09/30 08:41:38;;;;;;;;;;;;;;;;;;5043132;28;19989;-68
2023/09/30 08:44:04;;;;;;;;;;;;;;;;;;5051103;28;20013;-69
2023/09/30 08:46:30;;;;;;;;;;;;;;;;;;5064789;28;20366;-68
2023/09/30 08:48:56;;;;;;;;;;;;;;;;;;5033959;28;19990;-67
2023/09/30 08:51:22;;;;;;;;;;;;;;;;;;5034247;28;20001;-67
2023/09/30 08:53:49;;;;;;;;;;;;;;;;;;5033628;28;19986;-66
2023/09/30 08:56:15;;;;;;;;;;;;;;;;;;5053559;28;20353;-67
2023/09/30 08:58:41;;;;;;;;;;;;;;;;;;5058136;28;20076;-66
2023/09/30 09:01:09;;;;;;;;;;;;;;;;;;5049033;28;19997;-67
2023/09/30 09:03:36;;;;;;;;;;;;;;;;;;5073461;28;20006;-67
2023/09/30 09:06:02;;;;;;;;;;;;;;;;;;5073642;28;20008;-67
2023/09/30 09:08:28;;;;;;;;;;;;;;;;;;5073769;28;19985;-68
2023/09/30 09:10:54;;;;;;;;;;;;;;;;;;5072627;28;19989;-68
2023/09/30 09:13:20;;;;;;;;;;;;;;;;;;5070873;28;19985;-69
2023/09/30 09:15:46;;;;;;;;;;;;;;;;;;5046172;28;19982;-67
2023/09/30 09:18:14;;;;;;;;;;;;;;;;;;5050574;28;19989;-67
2023/09/30 09:20:40;;;;;;;;;;;;;;;;;;5053720;28;19990;-67
2023/09/30 09:23:06;;;;;;;;;;;;;;;;;;5034197;28;20071;-68
2023/09/30 09:25:32;;;;;;;;;;;;;;;;;;5041603;28;19989;-67
2023/09/30 09:27:58;;;;;;;;;;;;;;;;;;5053490;28;20013;-68
2023/09/30 09:30:24;;;;;;;;;;;;;;;;;;5045087;28;20016;-68
2023/09/30 09:32:50;;;;;;;;;;;;;;;;;;5053260;28;20029;-66
2023/09/30 09:35:16;;;;;;;;;;;;;;;;;;5041870;28;19982;-68
2023/09/30 09:37:42;;;;;;;;;;;;;;;;;;5050646;28;19989;-67
2023/09/30 09:40:08;;;;;;;;;;;;;;;;;;5032685;28;20001;-66
2023/09/30 09:42:34;;;;;;;;;;;;;;;;;;5034446;28;20036;-67
2023/09/30 09:45:00;;;;;;;;;;;;;;;;;;5051034;28;20067;-67
2023/09/30 09:47:26;;;;;;;;;;;;;;;;;;5049456;28;20051;-66
2023/09/30 09:49:53;;;;;;;;;;;;;;;;;;5037475;28;19993;-69
2023/09/30 09:52:19;;;;;;;;;;;;;;;;;;5032864;28;19986;-68
2023/09/30 09:54:44;;;;;;;;;;;;;;;;;;5032954;28;19993;-70
2023/09/30 09:57:10;;;;;;;;;;;;;;;;;;5032796;28;19986;-70
2023/09/30 09:59:39;;;;;;;;;;;;;;;;;;5032792;28;20013;-69
2023/09/30 10:02:06;;;;;;;;;;;;;;;;;;5032621;28;20020;-71
2023/09/30 10:04:32;;;;;;;;;;;;;;;;;;5031498;28;20018;-70
2023/09/30 10:06:58;;;;;;;;;;;;;;;;;;5032867;28;19994;-67
2023/09/30 10:09:25;;;;;;;;;;;;;;;;;;5032728;28;19996;-70
2023/09/30 10:11:51;;;;;;;;;;;;;;;;;;5032554;28;19986;-70
2023/09/30 10:14:17;;;;;;;;;;;;;;;;;;5032453;28;20169;-68
2023/09/30 10:16:43;;;;;;;;;;;;;;;;;;5032663;28;20052;-70
2023/09/30 10:19:09;;;;;;;;;;;;;;;;;;5032576;28;20101;-70
2023/09/30 10:21:35;;;;;;;;;;;;;;;;;;5032601;28;20077;-68
2023/09/30 10:24:01;;;;;;;;;;;;;;;;;;5032089;28;20106;-68
2023/09/30 10:26:27;;;;;;;;;;;;;;;;;;5032110;28;19982;-67
2023/09/30 10:28:53;;;;;;;;;;;;;;;;;;5032389;28;19986;-74
2023/09/30 10:31:19;;;;;;;;;;;;;;;;;;5051302;28;20081;-77
2023/09/30 10:33:45;;;;;;;;;;;;;;;;;;5052627;28;19997;-75
2023/09/30 10:36:11;;;;;;;;;;;;;;;;;;5052384;28;19986;-76
2023/09/30 10:38:37;;;;;;;;;;;;;;;;;;5052003;28;19988;-77
2023/09/30 10:41:04;;;;;;;;;;;;;;;;;;5052021;28;20441;-77
2023/09/30 10:43:33;;;;;;;;;;;;;;;;;;5051913;28;20009;-76
2023/09/30 10:45:59;;;;;;;;;;;;;;;;;;5052229;28;20055;-76
2023/09/30 10:48:25;;;;;;;;;;;;;;;;;;5056809;28;19989;-76
2023/09/30 10:50:51;;;;;;;;;;;;;;;;;;5054971;28;20012;-75
2023/09/30 10:53:17;;;;;;;;;;;;;;;;;;5057717;28;20128;-76
2023/09/30 10:55:43;;;;;;;;;;;;;;;;;;5068086;28;19986;-75
2023/09/30 10:58:09;;;;;;;;;;;;;;;;;;5056948;28;20018;-76
2023/09/30 11:00:35;;;;;;;;;;;;;;;;;;5063434;28;19990;-75
2023/09/30 11:03:01;;;;;;;;;;;;;;;;;;5063268;28;20059;-74
2023/09/30 11:05:28;;;;;;;;;;;;;;;;;;5051360;28;20038;-74
2023/09/30 11:07:54;;;;;;;;;;;;;;;;;;5031543;28;19990;-76
2023/09/30 11:10:21;;;;;;;;;;;;;;;;;;5031970;28;19986;-75
2023/09/30 11:12:47;;;;;;;;;;;;;;;;;;5031662;28;20455;-75
2023/09/30 11:15:13;;;;;;;;;;;;;;;;;;5031538;28;20490;-75
2023/09/30 11:17:39;;;;;;;;;;;;;;;;;;5031661;28;19990;-75
2023/09/30 11:20:06;;;;;;;;;;;;;;;;;;5031574;28;19992;-74
2023/09/30 11:22:32;;;;;;;;;;;;;;;;;;5031556;28;20044;-75
2023/09/30 11:24:58;;;;;;;;;;;;;;;;;;5031535;28;20031;-75
2023/09/30 11:27:24;;;;;;;;;;;;;;;;;;5042474;28;19997;-76
2023/09/30 11:29:50;;;;;;;;;;;;;;;;;;5050425;28;20389;-76
2023/09/30 11:32:16;;;;;;;;;;;;;;;;;;5051481;28;19986;-74
2023/09/30 11:34:42;;;;;;;;;;;;;;;;;;5051299;28;19982;-73
2023/09/30 11:37:10;;;;;;;;;;;;;;;;;;5055160;28;19989;-74
2023/09/30 11:39:36;;;;;;;;;;;;;;;;;;5051374;28;20462;-74
2023/09/30 11:42:02;;;;;;;;;;;;;;;;;;5058316;28;19988;-76
2023/09/30 11:44:31;;;;;;;;;;;;;;;;;;5074596;28;20544;-77
2023/09/30 11:46:59;;;;;;;;;;;;;;;;;;5074790;28;19985;-72
2023/09/30 11:49:25;;;;;;;;;;;;;;;;;;5075337;28;19993;-70
2023/09/30 11:51:51;;;;;;;;;;;;;;;;;;5074877;28;19986;-70
2023/09/30 11:54:17;;;;;;;;;;;;;;;;;;5074738;28;19985;-75
2023/09/30 11:56:43;;;;;;;;;;;;;;;;;;5055079;28;19990;-77
2023/09/30 11:59:11;;;;;;;;;;;;;;;;;;5055169;28;20443;-76
2023/09/30 12:01:37;;;;;;;;;;;;;;;;;;5074491;28;19993;-76
2023/09/30 12:04:03;;;;;;;;;;;;;;;;;;5074710;28;20020;-75
2023/09/30 12:06:29;;;;;;;;;;;;;;;;;;5074343;28;20037;-76
2023/09/30 12:08:56;;;;;;;;;;;;;;;;;;5074744;28;20029;-74
2023/09/30 12:11:23;;;;;;;;;;;;;;;;;;5074783;28;19990;-75
2023/09/30 12:13:49;;;;;;;;;;;;;;;;;;5072426;28;20060;-75
2023/09/30 12:16:15;;;;;;;;;;;;;;;;;;5073031;28;20060;-74
2023/09/30 12:18:41;;;;;;;;;;;;;;;;;;5073003;28;19986;-77
2023/09/30 12:21:08;;;;;;;;;;;;;;;;;;5072918;28;19989;-74
2023/09/30 12:23:35;;;;;;;;;;;;;;;;;;5072557;28;20016;-78
2023/09/30 12:26:02;;;;;;;;;;;;;;;;;;5072703;28;20452;-76
2023/09/30 12:28:31;;;;;;;;;;;;;;;;;;5073291;28;20247;-74
2023/09/30 12:30:58;;;;;;;;;;;;;;;;;;5074437;28;20518;-78
2023/09/30 12:33:23;;;;;;;;;;;;;;;;;;5074354;28;20118;-77
2023/09/30 12:35:51;;;;;;;;;;;;;;;;;;5074370;28;20084;-76
2023/09/30 12:38:17;;;;;;;;;;;;;;;;;;5074393;28;19985;-75
2023/09/30 12:40:43;;;;;;;;;;;;;;;;;;5074333;28;19994;-75
2023/09/30 12:43:10;;;;;;;;;;;;;;;;;;5074120;28;20017;-76
2023/09/30 12:45:38;;;;;;;;;;;;;;;;;;5073896;28;20028;-75
2023/09/30 12:48:04;;;;;;;;;;;;;;;;;;5074452;28;20600;-76
2023/09/30 12:50:30;;;;;;;;;;;;;;;;;;5074324;28;19996;-76
2023/09/30 12:52:56;;;;;;;;;;;;;;;;;;5074583;28;19996;-77
2023/09/30 12:55:22;;;;;;;;;;;;;;;;;;5074228;28;19981;-76
2023/09/30 12:57:48;;;;;;;;;;;;;;;;;;5072955;28;19985;-77
2023/09/30 13:00:15;;;;;;;;;;;;;;;;;;5071924;28;19988;-77
2023/09/30 13:02:41;;;;;;;;;;;;;;;;;;5037048;28;20017;-79
2023/09/30 13:05:07;;;;;;;;;;;;;;;;;;5053805;28;20005;-78
2023/09/30 13:07:33;;;;;;;;;;;;;;;;;;5046760;28;19986;-77
2023/09/30 13:10:00;;;;;;;;;;;;;;;;;;5050400;28;20036;-77
2023/09/30 13:12:26;;;;;;;;;;;;;;;;;;5043918;28;19986;-76
2023/09/30 13:14:55;;;;;;;;;;;;;;;;;;5038568;28;20135;-77
2023/09/30 13:17:22;;;;;;;;;;;;;;;;;;5050235;28;19986;-77
2023/09/30 13:19:47;;;;;;;;;;;;;;;;;;5052644;28;19990;-76
2023/09/30 13:22:16;;;;;;;;;;;;;;;;;;5052682;28;19997;-75
2023/09/30 13:24:42;;;;;;;;;;;;;;;;;;5052434;28;20020;-76
2023/09/30 13:27:08;;;;;;;;;;;;;;;;;;5049327;28;19993;-76
2023/09/30 13:29:34;;;;;;;;;;;;;;;;;;5049696;28;20342;-77
2023/09/30 13:32:00;;;;;;;;;;;;;;;;;;5052445;28;20040;-77
2023/09/30 13:34:26;;;;;;;;;;;;;;;;;;5051142;28;19989;-77
2023/09/30 13:36:52;;;;;;;;;;;;;;;;;;5041577;28;19993;-75
2023/09/30 13:39:17;;;;;;;;;;;;;;;;;;5042853;28;20044;-77
2023/09/30 13:41:43;;;;;;;;;;;;;;;;;;5052850;28;19992;-77
2023/09/30 13:44:11;;;;;;;;;;;;;;;;;;5052008;28;20022;-77
2023/09/30 13:46:37;;;;;;;;;;;;;;;;;;5052588;28;19998;-77
2023/09/30 13:49:03;;;;;;;;;;;;;;;;;;5053311;28;19992;-77
2023/09/30 13:51:29;;;;;;;;;;;;;;;;;;5053057;28;19986;-76
2023/09/30 13:53:55;;;;;;;;;;;;;;;;;;5052791;28;20011;-77
2023/09/30 13:56:21;;;;;;;;;;;;;;;;;;5053222;28;20016;-77
2023/09/30 13:58:48;;;;;;;;;;;;;;;;;;5052010;28;20484;-78
2023/09/30 14:01:15;;;;;;;;;;;;;;;;;;5052627;28;20379;-77
2023/09/30 14:03:41;;;;;;;;;;;;;;;;;;5052634;28;20055;-77
2023/09/30 14:06:07;;;;;;;;;;;;;;;;;;5052775;28;20051;-77
2023/09/30 14:08:33;;;;;;;;;;;;;;;;;;5052495;28;20084;-77
2023/09/30 14:10:59;;;;;;;;;;;;;;;;;;5052525;28;20077;-76
2023/09/30 14:13:25;;;;;;;;;;;;;;;;;;5052342;28;20037;-76
2023/09/30 14:15:52;;;;;;;;;;;;;;;;;;5052500;28;20048;-77
2023/09/30 14:18:18;;;;;;;;;;;;;;;;;;5052322;28;20088;-77
2023/09/30 14:20:45;;;;;;;;;;;;;;;;;;5052385;28;20439;-79
2023/09/30 14:23:13;;;;;;;;;;;;;;;;;;5052112;28;20114;-77
2023/09/30 14:25:39;;;;;;;;;;;;;;;;;;5052337;28;19986;-77
2023/09/30 14:28:05;;;;;;;;;;;;;;;;;;5050967;28;19982;-74
2023/09/30 14:30:32;;;;;;;;;;;;;;;;;;5051568;28;19993;-75
2023/09/30 14:32:58;;;;;;;;;;;;;;;;;;5052074;28;19986;-76
2023/09/30 14:35:24;;;;;;;;;;;;;;;;;;5051819;28;19989;-73
2023/09/30 14:37:51;;;;;;;;;;;;;;;;;;5051855;28;20189;-73
2023/09/30 14:40:17;;;;;;;;;;;;;;;;;;5048677;28;19985;-73
2023/09/30 14:42:43;;;;;;;;;;;;;;;;;;5051669;28;20055;-73
2023/09/30 14:45:10;;;;;;;;;;;;;;;;;;5051533;28;20025;-73
2023/09/30 14:47:36;;;;;;;;;;;;;;;;;;5050739;28;20029;-74
2023/09/30 14:50:02;;;;;;;;;;;;;;;;;;5051594;28;19986;-73
2023/09/30 14:52:28;;;;;;;;;;;;;;;;;;5051628;28;19992;-73
2023/09/30 14:54:55;;;;;;;;;;;;;;;;;;5051930;28;19985;-73
2023/09/30 14:57:22;;;;;;;;;;;;;;;;;;5051653;28;20531;-74
2023/09/30 14:59:48;;;;;;;;;;;;;;;;;;5051495;28;19985;-74
2023/09/30 15:02:15;;;;;;;;;;;;;;;;;;5051462;28;20569;-74
2023/09/30 15:04:41;;;;;;;;;;;;;;;;;;5050718;28;20059;-74
2023/09/30 15:07:07;;;;;;;;;;;;;;;;;;5051163;28;20076;-74
2023/09/30 15:09:33;;;;;;;;;;;;;;;;;;5051447;28;20017;-74
2023/09/30 15:11:59;;;;;;;;;;;;;;;;;;5051485;28;19989;-74
2023/09/30 15:14:24;;;;;;;;;;;;;;;;;;5051281;28;20429;-73
2023/09/30 15:16:51;;;;;;;;;;;;;;;;;;5051288;28;19990;-73
2023/09/30 15:19:17;;;;;;;;;;;;;;;;;;5051086;28;20087;-73
2023/09/30 15:21:43;;;;;;;;;;;;;;;;;;5051467;28;20043;-73
2023/09/30 15:24:10;;;;;;;;;;;;;;;;;;5051117;28;20390;-72
2023/09/30 15:26:36;;;;;;;;;;;;;;;;;;5051290;28;19997;-77
2023/09/30 15:29:03;;;;;;;;;;;;;;;;;;5048616;28;19990;-75
2023/09/30 15:31:29;;;;;;;;;;;;;;;;;;5035388;28;20537;-74
2023/09/30 15:33:55;;;;;;;;;;;;;;;;;;5048386;28;19993;-74
2023/09/30 15:36:21;;;;;;;;;;;;;;;;;;5050272;28;19982;-73
2023/09/30 15:38:47;;;;;;;;;;;;;;;;;;5041782;28;19997;-74
2023/09/30 15:41:13;;;;;;;;;;;;;;;;;;5056104;28;19985;-74
2023/09/30 15:43:40;;;;;;;;;;;;;;;;;;5069329;28;20405;-74
2023/09/30 15:46:06;;;;;;;;;;;;;;;;;;5051219;28;19986;-72
2023/09/30 15:48:31;;;;;;;;;;;;;;;;;;5047135;28;19993;-74
2023/09/30 15:50:58;;;;;;;;;;;;;;;;;;5031348;28;20085;-74
2023/09/30 15:53:24;;;;;;;;;;;;;;;;;;5031402;28;20073;-74
2023/09/30 15:55:50;;;;;;;;;;;;;;;;;;5039657;28;20056;-73
2023/09/30 15:58:16;;;;;;;;;;;;;;;;;;5051444;28;19986;-74
2023/09/30 16:00:42;;;;;;;;;;;;;;;;;;5051158;28;19992;-74
2023/09/30 16:03:08;;;;;;;;;;;;;;;;;;5038719;28;20064;-74
2023/09/30 16:05:36;;;;;;;;;;;;;;;;;;5050585;28;20005;-75
2023/09/30 16:08:02;;;;;;;;;;;;;;;;;;5050138;28;20008;-73
2023/09/30 16:10:28;;;;;;;;;;;;;;;;;;5050969;28;19982;-73
2023/09/30 16:12:54;;;;;;;;;;;;;;;;;;5051584;28;20020;-74
2023/09/30 16:15:20;;;;;;;;;;;;;;;;;;5045944;28;19990;-73
2023/09/30 16:17:46;;;;;;;;;;;;;;;;;;5032688;28;19996;-74
2023/09/30 16:20:12;;;;;;;;;;;;;;;;;;5030550;28;20466;-73
2023/09/30 16:22:38;;;;;;;;;;;;;;;;;;5034902;28;20481;-73
2023/09/30 16:25:05;;;;;;;;;;;;;;;;;;5033324;28;19994;-73
2023/09/30 16:27:31;;;;;;;;;;;;;;;;;;5038665;28;19993;-72
2023/09/30 16:29:57;;;;;;;;;;;;;;;;;;5037499;28;19986;-70
2023/09/30 16:32:23;;;;;;;;;;;;;;;;;;5045555;28;19982;-72
2023/09/30 16:34:49;;;;;;;;;;;;;;;;;;5035282;28;20190;-72
2023/09/30 16:37:15;;;;;;;;;;;;;;;;;;5034254;28;19982;-71
2023/09/30 16:39:41;;;;;;;;;;;;;;;;;;5034487;28;19990;-72